Time;durP1;ratioP1;P1;durP2;ratioP2;P2;SDS_P1;SDS_P2;PMS_P1;PMS_P2;Temp;Humidity;BMP_temperature;BMP_pressure;BME280_temperature;BME280_humidity;BME280_pressure;Samples;Min_cycle;Max_cycle;Signal;HPM_P1;HPM_P2
2022/05/01 00:03:54;;;;;;;24.33;14.90;;;;;5.40;101997.00;;;;10555112;28;20204;-83
2022/05/01 00:08:58;;;;;;;18.17;14.97;;;;;5.40;101997.00;;;;10569750;28;20191;-83
2022/05/01 00:14:00;;;;;;;23.07;16.07;;;;;5.20;101994.00;;;;10567620;28;20197;-83
2022/05/01 00:19:02;;;;;;;21.27;16.43;;;;;5.20;101993.00;;;;10566902;28;20192;-83
2022/05/01 00:24:06;;;;;;;19.63;15.70;;;;;5.10;101992.00;;;;10549087;28;20188;-84
2022/05/01 00:29:08;;;;;;;24.23;17.60;;;;;4.90;101987.00;;;;10528825;28;20263;-83
2022/05/01 00:39:30;;;;;;;24.10;17.37;;;;;4.80;101988.00;;;;10558962;28;20196;-84
2022/05/01 00:44:33;;;;;;;24.43;18.33;;;;;4.70;101973.00;;;;10556188;28;20233;-84
2022/05/01 00:49:35;;;;;;;26.70;19.10;;;;;4.70;101978.00;;;;10503166;28;20204;-84
2022/05/01 00:54:41;;;;;;;27.00;18.73;;;;;4.60;101972.00;;;;10511929;28;20256;-82
2022/05/01 00:59:45;;;;;;;24.17;18.47;;;;;4.50;101974.00;;;;10496953;28;20208;-82
2022/05/01 01:04:48;;;;;;;28.87;20.23;;;;;4.40;101967.00;;;;10534595;28;20192;-81
2022/05/01 01:09:50;;;;;;;30.17;21.63;;;;;4.40;101971.00;;;;10531080;28;20193;-82
2022/05/01 01:14:52;;;;;;;29.73;22.33;;;;;4.40;101960.00;;;;10502083;28;20341;-82
2022/05/01 01:19:54;;;;;;;26.63;20.70;;;;;4.30;101964.00;;;;10528025;27;20234;-82
2022/05/01 01:24:56;;;;;;;31.70;21.03;;;;;4.30;101961.00;;;;10556303;27;20188;-82
2022/05/01 01:35:24;;;;;;;32.17;21.57;;;;;4.20;101954.00;;;;10611356;27;20541;-83
2022/05/01 01:40:31;;;;;;;30.07;20.67;;;;;4.20;101957.00;;;;10533906;28;20242;-82
2022/05/01 01:45:33;;;;;;;36.93;22.93;;;;;4.10;101952.00;;;;10535728;28;20180;-82
2022/05/01 01:50:35;;;;;;;31.73;21.33;;;;;4.10;101956.00;;;;10506302;28;20197;-82
2022/05/01 01:55:38;;;;;;;30.83;20.60;;;;;4.00;101958.00;;;;10509178;28;20213;-83
2022/05/01 02:00:40;;;;;;;30.53;22.97;;;;;3.90;101950.00;;;;10538809;27;20231;-82
2022/05/01 02:05:42;;;;;;;27.20;20.23;;;;;3.90;101959.00;;;;10526245;28;20687;-82
2022/05/01 02:10:44;;;;;;;29.90;22.17;;;;;3.90;101953.00;;;;10493164;28;20201;-83
2022/05/01 02:15:47;;;;;;;30.50;21.10;;;;;3.80;101947.00;;;;10514412;28;20200;-83
2022/05/01 02:26:09;;;;;;;30.17;21.70;;;;;3.70;101934.00;;;;10510264;28;20189;-83
2022/05/01 02:31:11;;;;;;;31.20;22.17;;;;;3.60;101942.00;;;;10553747;27;20196;-82
2022/05/01 02:36:16;;;;;;;30.30;21.43;;;;;3.50;101946.00;;;;10578166;27;20211;-83
2022/05/01 02:41:18;;;;;;;32.13;21.63;;;;;3.40;101931.00;;;;10577186;27;20298;-83
2022/05/01 02:46:20;;;;;;;28.93;21.27;;;;;3.40;101925.00;;;;10556861;28;20241;-83
2022/05/01 02:51:22;;;;;;;29.90;21.27;;;;;3.30;101917.00;;;;10567152;28;20667;-83
2022/05/01 02:56:25;;;;;;;35.77;24.27;;;;;3.30;101921.00;;;;10570235;28;20262;-83
2022/05/01 03:01:30;;;;;;;40.53;25.90;;;;;3.20;101918.00;;;;10531790;28;20192;-83
2022/05/01 03:06:34;;;;;;;39.10;25.10;;;;;3.20;101904.00;;;;10546878;28;20195;-83
2022/05/01 03:11:36;;;;;;;35.80;24.63;;;;;3.20;101910.00;;;;10531924;28;20208;-83
2022/05/01 03:16:38;;;;;;;35.50;23.87;;;;;3.10;101900.00;;;;10526455;28;20215;-83
2022/05/01 03:27:01;;;;;;;36.50;23.07;;;;;3.00;101894.00;;;;10547781;28;20188;-82
2022/05/01 03:32:07;;;;;;;37.60;26.33;;;;;3.00;101899.00;;;;10537924;28;20697;-82
2022/05/01 03:37:10;;;;;;;36.60;26.13;;;;;3.00;101895.00;;;;10532168;28;20236;-83
2022/05/01 03:42:12;;;;;;;45.87;27.67;;;;;3.00;101891.00;;;;10563661;28;20212;-82
2022/05/01 03:47:14;;;;;;;41.43;27.03;;;;;3.00;101884.00;;;;10518526;28;20231;-83
2022/05/01 03:52:15;;;;;;;37.63;25.87;;;;;2.90;101886.00;;;;10523696;28;20193;-83
2022/05/01 03:57:17;;;;;;;40.03;25.77;;;;;2.90;101880.00;;;;10523962;28;20537;-83
2022/05/01 04:02:19;;;;;;;43.23;27.70;;;;;2.80;101883.00;;;;10533683;28;20199;-82
2022/05/01 04:07:21;;;;;;;43.17;28.27;;;;;2.80;101882.00;;;;10565451;28;20216;-82
2022/05/01 04:12:23;;;;;;;38.17;25.07;;;;;2.80;101874.00;;;;10549671;28;20650;-82
2022/05/01 04:17:25;;;;;;;34.63;22.47;;;;;2.70;101877.00;;;;10566632;28;20325;-83
2022/05/01 04:22:27;;;;;;;40.37;25.13;;;;;2.70;101873.00;;;;10518128;28;20242;-83
2022/05/01 04:27:30;;;;;;;38.00;24.77;;;;;2.70;101881.00;;;;10514080;28;20211;-83
2022/05/01 04:32:32;;;;;;;35.43;22.93;;;;;2.70;101872.00;;;;10528655;28;20617;-83
2022/05/01 04:37:33;;;;;;;37.27;25.00;;;;;2.70;101879.00;;;;10497715;28;20254;-82
2022/05/01 04:42:35;;;;;;;40.07;24.73;;;;;2.80;101882.00;;;;10517333;28;20254;-82
2022/05/01 04:47:38;;;;;;;47.57;28.20;;;;;3.00;101882.00;;;;10526278;28;20192;-82
2022/05/01 04:52:40;;;;;;;43.97;26.60;;;;;3.20;101895.00;;;;10478159;28;20311;-82
2022/05/01 04:57:42;;;;;;;44.57;29.07;;;;;3.30;101885.00;;;;10438882;28;20692;-83
2022/05/01 05:02:47;;;;;;;47.20;28.63;;;;;3.60;101899.00;;;;10458699;28;20206;-82
2022/05/01 05:07:50;;;;;;;46.20;29.10;;;;;3.80;101895.00;;;;10453935;28;20213;-82
2022/05/01 05:12:52;;;;;;;46.70;30.20;;;;;4.30;101904.00;;;;10455563;28;20197;-83
2022/05/01 05:17:54;;;;;;;53.83;34.77;;;;;4.80;101911.00;;;;10468348;28;20202;-83
2022/05/01 05:22:56;;;;;;;50.17;34.23;;;;;5.30;101917.00;;;;10472659;28;20718;-83
2022/05/01 05:27:58;;;;;;;52.47;33.67;;;;;5.60;101919.00;;;;10454521;28;20193;-83
2022/05/01 05:33:00;;;;;;;57.13;35.87;;;;;6.00;101933.00;;;;10509062;28;20193;-82
2022/05/01 05:38:02;;;;;;;67.93;41.27;;;;;6.50;101929.00;;;;10494664;28;20209;-83
2022/05/01 05:43:04;;;;;;;73.60;42.07;;;;;7.00;101944.00;;;;10495397;28;20212;-83
2022/05/01 05:48:06;;;;;;;58.50;37.83;;;;;7.30;101932.00;;;;10495128;28;20192;-82
2022/05/01 05:53:08;;;;;;;56.03;38.97;;;;;7.80;101937.00;;;;10511252;28;20201;-83
2022/05/01 05:58:10;;;;;;;53.90;37.00;;;;;8.30;101941.00;;;;10512470;28;20630;-84
2022/05/01 06:03:12;;;;;;;47.87;34.60;;;;;8.80;101945.00;;;;10467272;28;20197;-83
2022/05/01 06:08:15;;;;;;;45.67;33.17;;;;;9.40;101942.00;;;;10438646;28;20189;-84
2022/05/01 06:13:17;;;;;;;47.67;33.83;;;;;9.60;101952.00;;;;10442494;28;20228;-83
2022/05/01 06:18:19;;;;;;;41.33;31.60;;;;;9.60;101948.00;;;;10480335;28;20213;-83
2022/05/01 06:23:21;;;;;;;46.87;32.67;;;;;10.10;101958.00;;;;10478505;28;20200;-83
2022/05/01 06:28:23;;;;;;;44.90;33.53;;;;;10.80;101942.00;;;;10495004;28;20242;-84
2022/05/01 06:33:27;;;;;;;42.23;29.03;;;;;11.20;101946.00;;;;10472980;28;20610;-83
2022/05/01 06:38:29;;;;;;;38.03;26.83;;;;;11.40;101946.00;;;;10495600;28;20254;-83
2022/05/01 06:43:32;;;;;;;36.87;27.30;;;;;12.00;101945.00;;;;10480785;28;20269;-84
2022/05/01 06:48:33;;;;;;;38.73;28.23;;;;;12.60;101948.00;;;;10510187;28;20197;-84
2022/05/01 06:53:35;;;;;;;31.57;25.60;;;;;13.50;101939.00;;;;10536087;28;20195;-84
2022/05/01 06:58:37;;;;;;;33.70;25.50;;;;;14.30;101952.00;;;;10507650;28;20208;-84
2022/05/01 07:03:41;;;;;;;29.70;23.57;;;;;14.10;101956.00;;;;10470179;28;20197;-84
2022/05/01 07:08:43;;;;;;;29.97;23.47;;;;;14.90;101957.00;;;;10469622;28;20189;-84
2022/05/01 07:13:44;;;;;;;29.90;22.37;;;;;15.30;101960.00;;;;10459286;28;20197;-84
2022/05/01 07:18:46;;;;;;;26.23;21.87;;;;;15.30;101957.00;;;;10481886;28;20714;-85
2022/05/01 07:23:49;;;;;;;24.57;21.10;;;;;15.20;101955.00;;;;10493407;28;20196;-84
2022/05/01 07:28:50;;;;;;;23.93;19.37;;;;;15.20;101946.00;;;;10509916;28;20242;-83
2022/05/01 07:33:52;;;;;;;28.73;20.40;;;;;15.10;101961.00;;;;10511206;28;20568;-84
2022/05/01 07:38:54;;;;;;;25.63;20.30;;;;;14.80;101957.00;;;;10475887;28;20583;-84
2022/05/01 07:43:56;;;;;;;25.07;20.97;;;;;15.40;101955.00;;;;10492381;28;20215;-84
2022/05/01 07:48:58;;;;;;;25.50;19.27;;;;;16.00;101954.00;;;;10494733;28;20207;-83
2022/05/01 07:54:01;;;;;;;20.42;17.75;;;;;16.80;101950.00;;;;10536103;28;20659;-85
2022/05/01 07:59:03;;;;;;;18.13;16.15;;;;;17.30;101945.00;;;;10556569;28;20216;-84
2022/05/01 08:09:27;;;;;;;14.82;12.52;;;;;17.00;101948.00;;;;10535684;27;20184;-85
2022/05/01 08:14:28;;;;;;;15.82;12.85;;;;;16.10;101951.00;;;;10532839;28;20192;-84
2022/05/01 08:24:54;;;;;;;15.13;12.55;;;;;16.00;101955.00;;;;10529902;27;20212;-83
2022/05/01 08:29:56;;;;;;;17.53;12.30;;;;;15.60;101957.00;;;;10514730;27;20192;-82
2022/05/01 08:34:58;;;;;;;15.93;12.13;;;;;15.10;101942.00;;;;10539187;28;20333;-83
2022/05/01 08:40:00;;;;;;;15.63;12.53;;;;;15.70;101939.00;;;;10544795;28;20223;-83
2022/05/01 08:45:03;;;;;;;15.18;12.93;;;;;16.00;101949.00;;;;10545511;28;20196;-83
2022/05/01 08:50:07;;;;;;;14.82;12.30;;;;;16.70;101932.00;;;;10531832;28;20201;-84
2022/05/01 08:55:17;;;;;;;12.52;10.98;;;;;18.20;101940.00;;;;10529799;27;20199;-83
2022/05/01 09:00:27;;;;;;;14.90;11.18;;;;;18.20;101944.00;;;;10534687;27;20194;-83
2022/05/01 09:05:29;;;;;;;10.90;9.63;;;;;19.30;101948.00;;;;10529111;28;20240;-83
2022/05/01 09:10:32;;;;;;;11.07;7.75;;;;;19.50;101951.00;;;;10538098;28;20193;-84
2022/05/01 09:15:41;;;;;;;8.98;7.72;;;;;18.00;101954.00;;;;10520593;28;20192;-83
2022/05/01 09:21:03;;;;;;;9.13;7.18;;;;;17.50;101944.00;;;;10525079;28;20749;-84
2022/05/01 09:26:10;;;;;;;9.20;7.75;;;;;17.50;101935.00;;;;10538295;28;20184;-83
2022/05/01 09:31:12;;;;;;;7.60;6.80;;;;;19.60;101924.00;;;;10524888;27;20203;-83
2022/05/01 09:36:35;;;;;;;8.38;7.15;;;;;19.50;101936.00;;;;10555883;28;20535;-84
2022/05/01 09:41:42;;;;;;;7.43;6.43;;;;;19.10;101929.00;;;;10549896;28;20315;-83
2022/05/01 09:46:45;;;;;;;8.38;6.85;;;;;19.50;101924.00;;;;10523639;28;20655;-83
2022/05/01 09:51:56;;;;;;;6.55;5.80;;;;;19.50;101929.00;;;;10545506;28;20275;-83
2022/05/01 09:57:00;;;;;;;7.18;6.13;;;;;19.40;101917.00;;;;10535917;28;20200;-83
2022/05/01 10:02:04;;;;;;;8.25;7.10;;;;;19.00;101919.00;;;;10506321;28;20200;-83
2022/05/01 10:07:08;;;;;;;10.00;7.07;;;;;18.80;101917.00;;;;10525308;27;20228;-82
2022/05/01 10:12:11;;;;;;;8.60;7.13;;;;;19.80;101911.00;;;;10506375;28;20711;-83
2022/05/01 10:17:13;;;;;;;10.30;7.50;;;;;21.90;101899.00;;;;10539503;28;20234;-83
2022/05/01 10:22:17;;;;;;;6.72;6.13;;;;;23.50;101904.00;;;;10510112;27;20644;-83
2022/05/01 10:27:31;;;;;;;8.30;7.43;;;;;23.50;101911.00;;;;10553624;27;20223;-83
2022/05/01 10:32:52;;;;;;;8.43;6.57;;;;;21.30;101901.00;;;;10533332;28;20207;-83
2022/05/01 10:38:09;;;;;;;8.00;7.03;;;;;20.60;101899.00;;;;10544710;28;20224;-83
2022/05/01 10:43:21;;;;;;;7.30;6.63;;;;;20.60;101897.00;;;;10542396;28;20239;-83
2022/05/01 10:48:31;;;;;;;8.20;6.00;;;;;20.70;101895.00;;;;10527928;28;20184;-83
2022/05/01 10:53:34;;;;;;;7.30;6.18;;;;;20.80;101890.00;;;;10497386;28;20208;-83
2022/05/01 10:58:36;;;;;;;8.48;6.25;;;;;20.40;101894.00;;;;10529998;28;20204;-83
2022/05/01 11:03:50;;;;;;;7.63;6.82;;;;;19.70;101885.00;;;;10531424;28;20203;-83
2022/05/01 11:08:58;;;;;;;8.20;6.65;;;;;19.70;101874.00;;;;10515914;27;20192;-85
2022/05/01 11:15:06;;;;;;;10.85;6.85;;;;;21.20;101859.00;;;;10547545;28;20196;-85
2022/05/01 11:20:18;;;;;;;7.55;6.78;;;;;22.20;101851.00;;;;10498409;28;20729;-85
2022/05/01 11:25:33;;;;;;;10.05;8.10;;;;;22.60;101855.00;;;;10528597;28;20207;-83
2022/05/01 11:30:44;;;;;;;7.25;6.43;;;;;21.80;101848.00;;;;10516084;28;20287;-83
2022/05/01 11:36:00;;;;;;;7.78;6.97;;;;;22.50;101837.00;;;;10539679;28;20196;-83
2022/05/01 11:41:03;;;;;;;7.45;6.63;;;;;22.60;101832.00;;;;10542338;28;20249;-85
2022/05/01 11:46:17;;;;;;;7.90;6.80;;;;;23.50;101820.00;;;;10531115;28;20546;-85
2022/05/01 11:51:21;;;;;;;9.45;7.35;;;;;24.90;101813.00;;;;10523929;28;20273;-83
2022/05/01 12:07:18;;;;;;;9.73;7.25;;;;;22.00;101806.00;;;;10507346;28;20185;-83
2022/05/01 12:12:20;;;;;;;9.30;8.05;;;;;22.00;101796.00;;;;10473138;28;20200;-83
2022/05/01 12:17:22;;;;;;;8.70;7.65;;;;;22.40;101790.00;;;;10492069;28;20204;-83
2022/05/01 12:22:31;;;;;;;8.65;7.45;;;;;22.70;101788.00;;;;10489105;28;20196;-84
2022/05/01 12:27:40;;;;;;;10.05;8.65;;;;;23.30;101782.00;;;;10510049;28;20213;-82
2022/05/01 12:32:53;;;;;;;9.55;7.78;;;;;23.60;101770.00;;;;10497917;28;20232;-82
2022/05/01 12:37:58;;;;;;;10.63;8.10;;;;;23.10;101776.00;;;;10486396;28;20209;-82
2022/05/01 12:48:21;;;;;;;9.30;7.40;;;;;21.90;101771.00;;;;10462967;28;20243;-83
2022/05/01 12:53:29;;;;;;;10.60;7.25;;;;;21.80;101776.00;;;;10468521;28;20209;-82
2022/05/01 12:58:35;;;;;;;13.43;8.48;;;;;22.10;101769.00;;;;10528272;28;20204;-83
2022/05/01 13:03:38;;;;;;;8.93;8.02;;;;;23.00;101759.00;;;;10591630;27;20237;-83
2022/05/01 13:08:44;;;;;;;9.45;7.13;;;;;23.30;101755.00;;;;10533826;28;20192;-82
2022/05/01 13:13:58;;;;;;;8.45;7.47;;;;;24.40;101741.00;;;;10539161;28;20215;-83
2022/05/01 13:19:08;;;;;;;10.15;7.88;;;;;24.90;101744.00;;;;10540607;28;20205;-83
2022/05/01 13:24:14;;;;;;;13.05;8.38;;;;;24.50;101743.00;;;;10517522;28;20579;-83
2022/05/01 13:29:18;;;;;;;8.38;7.35;;;;;24.40;101745.00;;;;10520563;28;20385;-82
2022/05/01 13:34:20;;;;;;;8.95;7.95;;;;;24.80;101739.00;;;;10527879;27;20188;-82
2022/05/01 13:44:44;;;;;;;7.63;6.93;;;;;23.90;101733.00;;;;10546662;28;20211;-83
2022/05/01 13:44:47;;;;;;;9.20;6.75;;;;;23.40;101722.00;;;;10549431;28;20207;-83
2022/05/01 13:49:50;;;;;;;9.13;7.47;;;;;23.70;101719.00;;;;10529774;28;20192;-83
2022/05/01 13:54:53;;;;;;;9.60;8.70;;;;;24.30;101709.00;;;;10513733;28;20597;-84
2022/05/01 13:59:56;;;;;;;10.43;7.68;;;;;25.30;101706.00;;;;10533324;28;20622;-83
2022/05/01 14:04:58;;;;;;;13.25;6.85;;;;;24.80;101713.00;;;;10553446;28;20192;-83
2022/05/01 14:10:00;;;;;;;8.60;7.38;;;;;24.70;101699.00;;;;10547546;28;20180;-84
2022/05/01 14:15:02;;;;;;;10.60;7.60;;;;;23.60;101705.00;;;;10541465;28;20188;-84
2022/05/01 14:20:07;;;;;;;9.82;7.47;;;;;24.30;101700.00;;;;10512954;28;20218;-84
2022/05/01 14:25:09;;;;;;;8.18;7.05;;;;;23.60;101692.00;;;;10510822;28;20664;-84
2022/05/01 14:30:11;;;;;;;8.38;6.78;;;;;26.10;101691.00;;;;10527221;27;20189;-85
2022/05/01 14:35:17;;;;;;;8.70;7.20;;;;;24.90;101676.00;;;;10549959;28;20192;-85
2022/05/01 14:40:23;;;;;;;9.73;7.88;;;;;22.70;101684.00;;;;10489923;28;20220;-84
2022/05/01 14:45:26;;;;;;;8.05;7.25;;;;;21.70;101681.00;;;;10555694;28;20199;-85
2022/05/01 14:50:29;;;;;;;7.95;7.15;;;;;22.20;101675.00;;;;10518131;28;20691;-83
2022/05/01 14:55:33;;;;;;;7.80;7.10;;;;;22.80;101674.00;;;;10521321;28;20252;-84
2022/05/01 15:11:17;;;;;;;8.15;7.35;;;;;22.90;101662.00;;;;10523135;28;20215;-85
2022/05/01 15:16:32;;;;;;;8.75;7.40;;;;;22.30;101656.00;;;;10495799;28;20220;-85
2022/05/01 15:27:08;;;;;;;8.40;7.50;;;;;20.90;101650.00;;;;10539232;28;20363;-84
2022/05/01 15:32:19;;;;;;;8.63;7.82;;;;;20.30;101646.00;;;;10524525;28;20650;-84
2022/05/01 15:37:24;;;;;;;8.80;7.18;;;;;19.70;101643.00;;;;10508694;28;20192;-83
2022/05/01 15:42:33;;;;;;;9.20;7.45;;;;;19.10;101640.00;;;;10547771;28;20246;-84
2022/05/01 15:47:35;;;;;;;9.77;8.00;;;;;19.00;101646.00;;;;10521538;28;20184;-83
2022/05/01 15:58:00;;;;;;;11.18;7.35;;;;;19.50;101641.00;;;;10551645;28;20204;-83
2022/05/01 16:03:02;;;;;;;8.73;7.75;;;;;19.70;101632.00;;;;10542423;28;20188;-83
2022/05/01 16:08:21;;;;;;;7.30;6.60;;;;;19.90;101638.00;;;;10547329;28;20193;-83
2022/05/01 16:13:45;;;;;;;8.57;7.30;;;;;19.90;101638.00;;;;10551311;28;20240;-83
2022/05/01 16:18:58;;;;;;;7.25;6.55;;;;;19.90;101624.00;;;;10538359;28;20239;-83
2022/05/01 16:24:11;;;;;;;8.30;7.45;;;;;19.40;101615.00;;;;10541959;28;20210;-84
2022/05/01 16:29:28;;;;;;;12.10;9.35;;;;;18.90;101622.00;;;;10508113;28;20188;-83
2022/05/01 16:34:55;;;;;;;7.53;5.38;;;;;18.60;101615.00;;;;10516789;28;20196;-84
2022/05/01 16:39:59;;;;;;;11.93;9.88;;;;;18.80;101618.00;;;;10499768;28;20204;-83
2022/05/01 16:45:04;;;;;;;7.45;5.68;;;;;18.30;101606.00;;;;10528029;28;20196;-82
2022/05/01 16:50:08;;;;;;;8.82;6.32;;;;;17.80;101612.00;;;;10534373;28;20193;-83
2022/05/01 16:55:13;;;;;;;8.77;6.40;;;;;17.50;101614.00;;;;10572056;28;20192;-82
2022/05/01 17:00:15;;;;;;;7.90;5.30;;;;;17.20;101608.00;;;;10524249;28;20246;-82
2022/05/01 17:05:40;;;;;;;5.63;4.85;;;;;16.70;101613.00;;;;10525074;28;20555;-82
2022/05/01 17:10:52;;;;;;;6.85;5.50;;;;;16.30;101616.00;;;;10513111;28;20590;-82
2022/05/01 17:16:02;;;;;;;7.55;6.03;;;;;16.00;101607.00;;;;10492035;28;20643;-81
2022/05/01 17:21:12;;;;;;;6.17;5.57;;;;;15.80;101609.00;;;;10519852;28;20262;-82
2022/05/01 17:26:24;;;;;;;8.88;6.55;;;;;15.80;101590.00;;;;10509901;28;20245;-82
2022/05/01 17:31:30;;;;;;;8.50;5.87;;;;;15.80;101588.00;;;;10544338;27;20181;-82
2022/05/01 17:36:33;;;;;;;8.20;6.30;;;;;15.90;101593.00;;;;10528987;28;20191;-82
2022/05/01 17:41:35;;;;;;;9.67;6.20;;;;;16.00;101589.00;;;;10536055;28;20269;-82
2022/05/01 17:46:41;;;;;;;8.70;6.13;;;;;16.00;101586.00;;;;10527696;28;20308;-82
2022/05/01 17:51:44;;;;;;;6.60;5.93;;;;;15.90;101597.00;;;;10538093;28;20235;-82
2022/05/01 17:56:46;;;;;;;11.67;6.27;;;;;15.60;101593.00;;;;10535400;28;20205;-82
2022/05/01 18:02:13;;;;;;;9.47;5.93;;;;;15.40;101606.00;;;;10557887;28;20215;-81
2022/05/01 18:13:20;;;;;;;8.20;5.80;;;;;15.10;101599.00;;;;10572524;28;20191;-82
2022/05/01 18:18:41;;;;;;;9.87;6.93;;;;;15.00;101603.00;;;;10533209;28;20219;-82
2022/05/01 18:23:50;;;;;;;7.90;6.50;;;;;15.10;101597.00;;;;10549838;28;20233;-82
2022/05/01 18:35:03;;;;;;;8.03;6.37;;;;;15.00;101604.00;;;;10521801;28;20908;-81
2022/05/01 18:40:09;;;;;;;11.40;6.97;;;;;14.80;101613.00;;;;10533643;28;20233;-82
2022/05/01 18:45:13;;;;;;;10.63;8.37;;;;;14.50;101620.00;;;;10551677;28;20215;-82
2022/05/01 18:50:18;;;;;;;16.00;10.03;;;;;14.30;101621.00;;;;10511514;28;20624;-81
2022/05/01 18:55:20;;;;;;;11.97;8.83;;;;;14.00;101625.00;;;;10529985;28;20204;-82
2022/05/01 19:00:22;;;;;;;11.97;8.33;;;;;13.70;101622.00;;;;10515966;28;20208;-81
2022/05/01 19:05:25;;;;;;;7.60;6.80;;;;;13.50;101628.00;;;;10563489;28;20192;-82
2022/05/01 19:10:30;;;;;;;7.33;6.63;;;;;13.20;101624.00;;;;10532974;28;20719;-82
2022/05/01 19:15:43;;;;;;;8.57;7.00;;;;;13.00;101628.00;;;;10513716;28;20288;-81
2022/05/01 19:21:09;;;;;;;7.37;6.70;;;;;12.60;101630.00;;;;10526602;28;20284;-80
2022/05/01 19:26:20;;;;;;;7.80;6.53;;;;;12.40;101636.00;;;;10542447;28;20200;-82
2022/05/01 19:31:29;;;;;;;14.87;7.03;;;;;12.20;101639.00;;;;10506696;28;20188;-81
2022/05/01 19:36:44;;;;;;;12.50;7.03;;;;;12.00;101638.00;;;;10582646;28;20554;-81
2022/05/01 19:42:15;;;;;;;10.03;7.40;;;;;11.70;101632.00;;;;10581598;28;20646;-81
2022/05/01 19:53:07;;;;;;;9.97;7.57;;;;;11.40;101651.00;;;;10557094;28;20261;-81
2022/05/01 19:58:13;;;;;;;8.90;7.07;;;;;11.30;101647.00;;;;10509656;28;20188;-81
2022/05/01 20:03:20;;;;;;;9.47;7.40;;;;;11.20;101649.00;;;;10492296;28;20296;-81
2022/05/01 20:08:25;;;;;;;7.73;6.77;;;;;11.00;101646.00;;;;10499343;28;20200;-81
2022/05/01 20:13:27;;;;;;;8.63;5.97;;;;;10.90;101648.00;;;;10527938;28;20188;-82
2022/05/01 20:18:36;;;;;;;8.03;6.80;;;;;11.00;101656.00;;;;10536330;28;20274;-82
2022/05/01 20:23:51;;;;;;;9.80;5.20;;;;;10.90;101654.00;;;;10540219;28;20211;-82
2022/05/01 20:29:19;;;;;;;8.53;5.47;;;;;10.90;101655.00;;;;10537984;28;20647;-82
2022/05/01 20:34:47;;;;;;;8.77;6.17;;;;;10.90;101662.00;;;;10525420;28;20231;-82
2022/05/01 20:40:02;;;;;;;7.40;6.07;;;;;10.90;101657.00;;;;10532147;28;20258;-82
2022/05/01 20:45:08;;;;;;;9.53;6.23;;;;;10.80;101658.00;;;;10521148;28;20224;-83
2022/05/01 20:50:13;;;;;;;10.73;6.83;;;;;10.60;101658.00;;;;10514203;28;20750;-83
2022/05/01 20:55:17;;;;;;;7.53;5.93;;;;;10.50;101653.00;;;;10553716;28;20241;-83
2022/05/01 21:00:19;;;;;;;10.00;6.43;;;;;10.40;101646.00;;;;10541819;28;20243;-84
2022/05/01 21:05:23;;;;;;;11.20;7.00;;;;;10.30;101654.00;;;;10521629;28;20223;-83
2022/05/01 21:10:30;;;;;;;10.20;7.03;;;;;10.10;101650.00;;;;10521339;28;20192;-83
2022/05/01 21:15:32;;;;;;;8.77;6.57;;;;;9.90;101652.00;;;;10533246;28;20201;-83
2022/05/01 21:20:36;;;;;;;9.17;7.10;;;;;9.80;101634.00;;;;10504094;28;20233;-84
2022/05/01 21:25:38;;;;;;;7.03;5.93;;;;;9.60;101640.00;;;;10519984;28;20279;-83
2022/05/01 21:36:01;;;;;;;9.13;6.60;;;;;9.30;101636.00;;;;10536858;28;20245;-83
2022/05/01 21:41:03;;;;;;;11.43;7.20;;;;;9.20;101636.00;;;;10536060;28;20218;-83
2022/05/01 21:46:06;;;;;;;12.93;7.33;;;;;9.00;101634.00;;;;10552971;28;20245;-84
2022/05/01 21:51:08;;;;;;;8.67;7.37;;;;;8.90;101632.00;;;;10518554;28;20188;-84
2022/05/01 21:56:09;;;;;;;8.20;6.63;;;;;8.70;101635.00;;;;10541358;28;20230;-83
2022/05/01 22:01:11;;;;;;;9.93;6.83;;;;;8.60;101628.00;;;;10540448;27;20571;-83
2022/05/01 22:06:14;;;;;;;11.87;7.23;;;;;8.50;101619.00;;;;10550619;28;20708;-84
2022/05/01 22:11:16;;;;;;;12.13;7.47;;;;;8.40;101626.00;;;;10533069;28;20185;-83
2022/05/01 22:16:18;;;;;;;9.07;7.90;;;;;8.20;101623.00;;;;10550317;28;20696;-83
2022/05/01 22:21:20;;;;;;;12.37;8.07;;;;;8.10;101613.00;;;;10551671;28;20227;-82
2022/05/01 22:26:22;;;;;;;12.10;7.57;;;;;7.90;101612.00;;;;10530418;28;20199;-80
2022/05/01 22:31:24;;;;;;;10.43;7.93;;;;;7.80;101612.00;;;;10527818;28;20181;-82
2022/05/01 22:41:46;;;;;;;14.73;8.47;;;;;7.70;101606.00;;;;10515757;28;20219;-82
2022/05/01 22:46:49;;;;;;;12.40;8.30;;;;;7.60;101607.00;;;;10530217;28;20548;-82
2022/05/01 22:51:52;;;;;;;13.03;8.73;;;;;7.50;101608.00;;;;10487401;28;20244;-82
2022/05/01 22:56:53;;;;;;;13.93;8.50;;;;;7.40;101600.00;;;;10488535;28;20250;-82
2022/05/01 23:01:55;;;;;;;11.47;9.17;;;;;7.40;101608.00;;;;10478843;28;20286;-82
2022/05/01 23:06:57;;;;;;;11.73;9.37;;;;;7.30;101609.00;;;;10489070;28;20180;-81
2022/05/01 23:12:07;;;;;;;18.73;10.43;;;;;7.20;101596.00;;;;10489580;28;20185;-82
2022/05/01 23:17:09;;;;;;;18.33;11.93;;;;;7.10;101600.00;;;;10472385;28;20193;-82
2022/05/01 23:22:11;;;;;;;14.40;11.13;;;;;7.10;101596.00;;;;10488747;28;21059;-82
2022/05/01 23:27:13;;;;;;;16.13;12.50;;;;;7.00;101589.00;;;;10519450;28;20231;-81
2022/05/01 23:32:14;;;;;;;19.13;12.33;;;;;6.90;101594.00;;;;10516069;28;20181;-82
2022/05/01 23:37:16;;;;;;;17.57;11.43;;;;;6.80;101593.00;;;;10489033;28;20239;-82
2022/05/01 23:42:18;;;;;;;14.40;11.17;;;;;6.80;101588.00;;;;10488612;28;20269;-81
2022/05/01 23:47:20;;;;;;;15.30;11.37;;;;;6.70;101576.00;;;;10488002;28;20242;-81
2022/05/01 23:52:22;;;;;;;15.47;11.97;;;;;6.70;101573.00;;;;10487355;28;20639;-81
2022/05/01 23:57:24;;;;;;;15.53;12.07;;;;;6.60;101571.00;;;;10504533;28;20230;-81
